createdAt,value
2019-04-27T00:01:20.244Z,3.27
2019-04-27T00:04:11.743Z,3.45
2019-04-27T00:06:46.447Z,2.67
2019-04-27T00:09:26.490Z,5.20
2019-04-27T00:12:05.576Z,2.92
2019-04-27T00:14:33.983Z,3.15
2019-04-27T00:17:42.756Z,2.77
2019-04-27T00:20:13.122Z,6.15
2019-04-27T00:22:53.495Z,5.37
2019-04-27T00:25:23.015Z,5.67
2019-04-27T00:27:53.495Z,4.20
2019-04-27T00:30:23.464Z,4.15
2019-04-27T00:32:53.582Z,4.90
2019-04-27T00:35:28.858Z,4.58
2019-04-27T00:38:17.516Z,4.35
2019-04-27T00:40:51.664Z,4.85
2019-04-27T00:43:20.565Z,6.12
2019-04-27T00:45:49.961Z,6.90
2019-04-27T00:48:18.910Z,6.28
2019-04-27T00:50:47.817Z,6.47
2019-04-27T00:53:16.766Z,8.98
2019-04-27T00:56:06.439Z,5.03
2019-04-27T00:58:43.376Z,5.75
2019-04-27T01:01:33.196Z,3.98
2019-04-27T01:04:21.356Z,3.33
2019-04-27T01:06:50.358Z,5.08
2019-04-27T01:09:21.092Z,4.40
2019-04-27T01:11:50.184Z,4.08
2019-04-27T01:14:19.100Z,7.28
2019-04-27T01:16:49.237Z,6.17
2019-04-27T01:19:19.133Z,5.72
2019-04-27T01:21:49.692Z,8.05
2019-04-27T01:24:19.144Z,4.35
2019-04-27T01:27:00.058Z,4.70
2019-04-27T01:29:29.906Z,3.52
2019-04-27T01:31:59.148Z,6.72
2019-04-27T01:34:29.507Z,4.67
2019-04-27T01:36:59.512Z,4.70
2019-04-27T01:39:28.975Z,5.70
2019-04-27T01:41:59.077Z,5.50
2019-04-27T01:44:29.584Z,5.03
2019-04-27T01:46:59.896Z,5.20
2019-04-27T01:49:29.640Z,4.78
2019-04-27T01:51:59.410Z,6.85
2019-04-27T01:54:29.434Z,5.67
2019-04-27T01:57:00.660Z,2.98
2019-04-27T01:59:30.030Z,6.53
2019-04-27T02:02:16.095Z,4.35
2019-04-27T02:05:09.908Z,5.72
2019-04-27T02:07:39.096Z,4.47
2019-04-27T02:10:09.528Z,5.83
2019-04-27T02:12:39.758Z,7.03
2019-04-27T02:15:10.555Z,3.87
2019-04-27T02:17:39.944Z,3.10
2019-04-27T02:20:09.733Z,4.85
2019-04-27T02:22:38.998Z,3.20
2019-04-27T02:25:09.078Z,4.85
2019-04-27T02:27:40.102Z,6.65
2019-04-27T02:30:37.463Z,3.25
2019-04-27T02:33:24.103Z,6.90
2019-04-27T02:35:53.031Z,6.40
2019-04-27T02:38:21.853Z,5.03
2019-04-27T02:40:54.353Z,7.33
2019-04-27T02:43:29.599Z,6.40
2019-04-27T02:46:00.447Z,4.17
2019-04-27T02:48:30.025Z,3.72
2019-04-27T02:51:02.915Z,6.85
2019-04-27T02:53:49.865Z,6.50
2019-04-27T02:56:20.243Z,8.68
2019-04-27T02:58:49.728Z,8.13
2019-04-27T03:01:20.290Z,6.40
2019-04-27T03:03:50.437Z,8.53
2019-04-27T03:06:20.044Z,8.85
2019-04-27T03:08:52.787Z,5.35
2019-04-27T03:11:20.569Z,8.83
2019-04-27T03:14:20.466Z,5.83
2019-04-27T03:16:55.510Z,6.22
2019-04-27T03:19:39.820Z,6.58
2019-04-27T03:22:26.452Z,4.70
2019-04-27T03:25:04.367Z,4.47
2019-04-27T03:27:35.104Z,7.12
2019-04-27T03:30:04.986Z,5.62
2019-04-27T03:32:34.014Z,6.12
2019-04-27T03:35:03.730Z,5.83
2019-04-27T03:37:33.261Z,5.22
2019-04-27T03:40:02.373Z,4.58
2019-04-27T03:42:32.584Z,5.72
2019-04-27T03:45:01.499Z,6.80
2019-04-27T03:47:30.925Z,7.40
2019-04-27T03:50:00.445Z,6.00
2019-04-27T03:52:51.333Z,5.22
2019-04-27T03:55:23.600Z,5.33
2019-04-27T03:58:00.132Z,5.65
2019-04-27T04:00:30.165Z,5.03
2019-04-27T04:03:00.572Z,6.92
2019-04-27T04:05:30.172Z,4.75
2019-04-27T04:08:00.481Z,7.03
2019-04-27T04:10:31.692Z,9.10
2019-04-27T04:13:22.923Z,4.42
2019-04-27T04:16:10.972Z,5.50
2019-04-27T04:19:11.296Z,4.83
2019-04-27T04:21:40.636Z,5.83
2019-04-27T04:24:11.840Z,5.40
2019-04-27T04:26:40.463Z,10.38
2019-04-27T04:29:10.590Z,6.53
2019-04-27T04:31:40.370Z,11.12
2019-04-27T04:34:12.140Z,7.35
2019-04-27T04:36:42.410Z,11.05
2019-04-27T04:39:12.461Z,7.55
2019-04-27T04:41:51.139Z,6.70
2019-04-27T04:44:40.074Z,6.35
2019-04-27T04:47:19.510Z,8.15
2019-04-27T04:49:54.610Z,8.48
2019-04-27T04:52:19.721Z,8.50
2019-04-27T04:54:49.567Z,8.33
2019-04-27T04:57:21.575Z,8.30
2019-04-27T04:59:51.354Z,10.40
2019-04-27T05:02:20.189Z,8.73
2019-04-27T05:04:49.232Z,8.88
2019-04-27T05:07:19.475Z,11.45
2019-04-27T05:09:48.692Z,10.53
2019-04-27T05:12:18.996Z,10.70
2019-04-27T05:14:48.911Z,7.65
2019-04-27T05:17:19.611Z,8.45
2019-04-27T05:19:49.777Z,9.33
2019-04-27T05:22:19.523Z,7.85
2019-04-27T05:25:00.368Z,8.38
2019-04-27T05:27:30.828Z,7.20
2019-04-27T05:30:00.703Z,9.28
2019-04-27T05:32:30.031Z,9.23
2019-04-27T05:34:59.637Z,7.22
2019-04-27T05:37:31.634Z,8.08
2019-04-27T05:39:59.316Z,6.50
2019-04-27T05:42:28.665Z,7.83
2019-04-27T05:45:15.317Z,9.88
2019-04-27T05:47:51.856Z,5.60
2019-04-27T05:50:21.936Z,5.97
2019-04-27T05:52:49.950Z,4.78
2019-04-27T05:55:19.248Z,5.87
2019-04-27T05:57:49.015Z,7.85
2019-04-27T06:00:20.335Z,5.95
2019-04-27T06:02:49.314Z,6.95
2019-04-27T06:05:18.992Z,3.62
2019-04-27T06:07:48.736Z,9.55
2019-04-27T06:10:19.761Z,5.15
2019-04-27T06:12:48.925Z,7.10
2019-04-27T06:15:19.695Z,4.97
2019-04-27T06:17:48.528Z,5.92
2019-04-27T06:20:18.856Z,5.87
2019-04-27T06:22:48.913Z,5.55
2019-04-27T06:25:21.190Z,5.87
2019-04-27T06:27:49.576Z,7.72
2019-04-27T06:30:19.361Z,7.00
2019-04-27T06:32:49.456Z,7.92
2019-04-27T06:35:19.067Z,6.28
2019-04-27T06:37:49.289Z,7.33
2019-04-27T06:40:18.816Z,10.55
2019-04-27T06:42:48.601Z,10.00
2019-04-27T06:45:19.692Z,5.78
2019-04-27T06:47:48.821Z,7.87
2019-04-27T06:50:19.648Z,8.18
2019-04-27T06:52:49.149Z,11.63
2019-04-27T06:55:18.923Z,12.20
2019-04-27T06:57:49.059Z,8.28
2019-04-27T07:00:18.993Z,8.85
2019-04-27T07:02:49.250Z,6.83
2019-04-27T07:05:20.328Z,6.95
2019-04-27T07:07:49.529Z,8.95
2019-04-27T07:10:18.649Z,5.33
2019-04-27T07:12:49.116Z,8.33
2019-04-27T07:15:20.081Z,8.93
2019-04-27T07:17:49.077Z,11.97
2019-04-27T07:20:18.881Z,7.47
2019-04-27T07:22:49.656Z,7.08
2019-04-27T07:25:18.970Z,6.62
2019-04-27T07:27:49.330Z,7.83
2019-04-27T07:30:19.076Z,7.87
2019-04-27T07:32:48.815Z,8.15
2019-04-27T07:35:19.664Z,6.50
2019-04-27T07:37:49.197Z,8.25
2019-04-27T07:40:18.754Z,9.60
2019-04-27T07:42:51.045Z,9.93
2019-04-27T07:45:39.623Z,15.00
2019-04-27T07:48:09.207Z,9.53
2019-04-27T07:50:39.007Z,9.23
2019-04-27T07:53:08.693Z,9.18
2019-04-27T07:55:39.445Z,8.98
2019-04-27T07:58:08.942Z,8.58
2019-04-27T08:00:39.494Z,9.15
2019-04-27T08:03:10.015Z,7.08
2019-04-27T08:05:39.527Z,11.03
2019-04-27T08:08:08.967Z,7.50
2019-04-27T08:10:39.194Z,11.25
2019-04-27T08:13:09.599Z,9.78
2019-04-27T08:15:39.634Z,8.68
2019-04-27T08:18:09.081Z,9.35
2019-04-27T08:20:39.084Z,11.78
2019-04-27T08:23:09.620Z,11.12
2019-04-27T08:25:39.307Z,9.88
2019-04-27T08:28:19.292Z,11.50
2019-04-27T08:31:10.423Z,10.75
2019-04-27T08:33:39.447Z,15.00
2019-04-27T08:36:08.973Z,13.75
2019-04-27T08:38:39.025Z,12.37
2019-04-27T08:41:08.968Z,10.38
2019-04-27T08:43:39.010Z,15.58
2019-04-27T08:46:08.787Z,18.20
2019-04-27T08:48:39.277Z,13.98
2019-04-27T08:51:09.549Z,15.68
2019-04-27T08:53:39.756Z,13.72
2019-04-27T08:56:09.435Z,12.60
2019-04-27T08:58:38.676Z,13.95
2019-04-27T09:01:10.050Z,14.07
2019-04-27T09:03:39.519Z,11.55
2019-04-27T09:06:10.914Z,11.30
2019-04-27T09:08:51.208Z,11.75
2019-04-27T09:11:36.889Z,12.35
2019-04-27T09:14:19.508Z,14.95
2019-04-27T09:17:05.445Z,16.30
2019-04-27T09:19:52.531Z,14.33
2019-04-27T09:22:21.600Z,13.50
2019-04-27T09:24:50.592Z,11.45
2019-04-27T09:27:19.947Z,13.93
2019-04-27T09:29:49.959Z,10.13
2019-04-27T09:32:19.256Z,13.98
2019-04-27T09:34:48.252Z,14.50
2019-04-27T09:37:17.276Z,10.90
2019-04-27T09:39:46.219Z,10.90
2019-04-27T09:42:16.742Z,11.68
2019-04-27T09:44:47.475Z,16.87
2019-04-27T09:47:16.514Z,16.95
2019-04-27T09:49:46.171Z,15.32
2019-04-27T09:52:24.297Z,9.40
2019-04-27T10:09:29.875Z,8.85
2019-04-27T10:11:58.796Z,12.10
2019-04-27T10:14:27.858Z,10.63
2019-04-27T10:16:56.844Z,9.23
2019-04-27T10:19:31.093Z,8.00
2019-04-27T10:21:56.766Z,4.92
2019-04-27T10:24:25.837Z,8.70
2019-04-27T10:26:54.876Z,9.50
2019-04-27T10:29:23.858Z,10.25
2019-04-27T10:31:52.750Z,7.37
2019-04-27T10:34:21.802Z,9.08
2019-04-27T10:36:50.810Z,6.87
2019-04-27T10:39:19.866Z,9.05
2019-04-27T10:41:48.888Z,8.45
2019-04-27T10:44:18.232Z,7.58
2019-04-27T10:46:47.397Z,8.65
2019-04-27T10:49:16.224Z,8.55
2019-04-27T10:51:45.778Z,9.20
2019-04-27T10:54:14.807Z,12.78
2019-04-27T10:56:43.728Z,10.00
2019-04-27T10:59:12.730Z,14.80
2019-04-27T11:01:41.872Z,9.48
2019-04-27T11:04:42.010Z,4.60
2019-04-27T11:07:15.762Z,8.35
2019-04-27T11:09:44.940Z,8.18
2019-04-27T11:12:15.701Z,10.05
2019-04-27T11:14:44.624Z,9.00
2019-04-27T11:17:13.616Z,13.32
2019-04-27T11:19:42.632Z,10.35
2019-04-27T11:22:11.727Z,17.60
2019-04-27T11:24:40.692Z,11.78
2019-04-27T11:27:09.605Z,10.50
2019-04-27T11:29:38.735Z,14.68
2019-04-27T11:32:07.837Z,12.73
2019-04-27T11:34:55.876Z,9.15
2019-04-27T11:37:31.570Z,8.53
2019-04-27T11:40:01.670Z,9.90
2019-04-27T11:42:30.744Z,6.87
2019-04-27T11:44:59.738Z,5.10
2019-04-27T11:47:28.732Z,7.65
2019-04-27T11:49:58.002Z,9.15
2019-04-27T11:52:29.793Z,6.50
2019-04-27T11:54:58.758Z,5.85
2019-04-27T11:57:27.767Z,6.72
2019-04-27T11:59:58.092Z,10.65
2019-04-27T12:02:27.436Z,10.48
2019-04-27T12:04:56.379Z,9.98
2019-04-27T12:07:27.347Z,7.47
2019-04-27T12:09:55.915Z,13.18
2019-04-27T12:12:26.219Z,9.80
2019-04-27T12:14:56.098Z,7.60
2019-04-27T12:17:27.711Z,6.58
2019-04-27T12:19:55.985Z,4.53
2019-04-27T12:22:24.957Z,4.20
2019-04-27T12:24:53.883Z,6.65
2019-04-27T12:27:32.882Z,4.62
2019-04-27T12:30:06.288Z,3.77
2019-04-27T12:32:35.974Z,8.80
2019-04-27T12:35:06.728Z,6.35
2019-04-27T12:37:35.845Z,5.47
2019-04-27T12:40:05.911Z,6.90
2019-04-27T12:42:36.356Z,7.12
2019-04-27T12:45:05.984Z,8.85
2019-04-27T12:47:36.429Z,5.42
2019-04-27T12:50:07.044Z,6.95
2019-04-27T12:52:36.092Z,6.80
2019-04-27T12:55:19.520Z,10.75
2019-04-27T12:58:01.912Z,5.37
2019-04-27T13:00:37.316Z,7.60
2019-04-27T13:03:06.329Z,10.03
2019-04-27T13:05:35.882Z,8.05
2019-04-27T13:08:04.956Z,7.80
2019-04-27T13:10:33.956Z,5.58
2019-04-27T13:13:02.791Z,6.60
2019-04-27T13:15:31.747Z,8.23
2019-04-27T13:18:00.591Z,7.55
2019-04-27T13:20:29.589Z,11.50
2019-04-27T13:22:58.559Z,8.78
2019-04-27T13:25:27.518Z,10.63
2019-04-27T13:27:56.792Z,7.67
2019-04-27T13:30:26.104Z,9.50
2019-04-27T13:32:56.260Z,9.98
2019-04-27T13:35:25.910Z,7.08
2019-04-27T13:37:56.004Z,8.53
2019-04-27T13:40:26.045Z,8.53
2019-04-27T13:43:07.750Z,10.28
2019-04-27T13:45:57.926Z,9.38
2019-04-27T13:48:56.229Z,5.80
2019-04-27T13:52:30.819Z,10.82
2019-04-27T13:55:00.421Z,9.55
2019-04-27T13:57:29.365Z,9.55
2019-04-27T13:59:58.279Z,11.33
2019-04-27T14:02:32.259Z,9.75
2019-04-27T14:04:58.045Z,12.03
2019-04-27T14:07:29.040Z,16.20
2019-04-27T14:09:59.930Z,10.08
2019-04-27T14:12:28.583Z,14.25
2019-04-27T14:14:59.103Z,11.68
2019-04-27T14:17:29.343Z,15.93
2019-04-27T14:19:59.517Z,9.73
2019-04-27T14:22:31.911Z,8.25
2019-04-27T14:25:00.872Z,16.60
2019-04-27T14:27:36.672Z,8.93
2019-04-27T14:30:06.210Z,12.73
2019-04-27T14:32:35.088Z,12.90
2019-04-27T14:35:04.173Z,9.40
2019-04-27T14:37:33.100Z,9.10
2019-04-27T14:40:02.117Z,9.20
2019-04-27T14:42:31.295Z,14.98
2019-04-27T14:45:00.391Z,7.22
2019-04-27T14:47:29.393Z,13.28
2019-04-27T14:49:59.005Z,9.73
2019-04-27T14:52:29.510Z,10.30
2019-04-27T14:54:58.657Z,10.68
2019-04-27T14:57:29.113Z,15.93
2019-04-27T15:00:00.022Z,16.32
2019-04-27T15:02:31.049Z,13.62
2019-04-27T15:04:59.925Z,8.93
2019-04-27T15:07:28.884Z,17.80
2019-04-27T15:09:57.916Z,10.08
2019-04-27T15:12:30.735Z,8.40
2019-04-27T15:14:59.440Z,14.58
2019-04-27T15:17:29.579Z,11.75
2019-04-27T15:20:03.305Z,10.13
2019-04-27T15:22:35.942Z,9.70
2019-04-27T15:25:12.299Z,12.33
2019-04-27T15:27:42.401Z,16.00
2019-04-27T15:30:17.773Z,8.75
2019-04-27T15:33:04.993Z,7.92
2019-04-27T15:35:43.961Z,9.60
2019-04-27T15:38:15.982Z,13.08
2019-04-27T15:41:16.033Z,13.83
2019-04-27T15:43:45.725Z,13.38
2019-04-27T15:46:14.701Z,14.73
2019-04-27T15:48:43.708Z,15.45
2019-04-27T15:51:17.519Z,15.08
2019-04-27T15:53:45.814Z,10.10
2019-04-27T15:56:14.375Z,10.95
2019-04-27T15:58:43.356Z,11.88
2019-04-27T16:01:12.525Z,10.40
2019-04-27T16:03:41.622Z,10.93
2019-04-27T16:06:11.948Z,10.63
2019-04-27T16:08:45.313Z,4.03
2019-04-27T16:11:16.660Z,6.10
2019-04-27T16:13:42.688Z,12.58
2019-04-27T16:16:11.624Z,11.18
2019-04-27T16:18:40.556Z,8.88
2019-04-27T16:21:10.870Z,8.38
2019-04-27T16:23:43.053Z,11.00
2019-04-27T16:26:15.040Z,10.00
2019-04-27T16:28:43.219Z,5.72
2019-04-27T16:31:12.556Z,6.17
2019-04-27T16:33:41.569Z,9.70
2019-04-27T16:36:10.634Z,13.08
2019-04-27T16:38:50.738Z,6.45
2019-04-27T16:41:19.790Z,14.20
2019-04-27T16:43:49.169Z,10.82
2019-04-27T16:46:19.038Z,9.30
2019-04-27T16:48:49.057Z,12.15
2019-04-27T16:51:18.481Z,10.28
2019-04-27T16:53:48.276Z,14.53
2019-04-27T16:56:20.361Z,8.53
2019-04-27T16:58:55.932Z,6.60
2019-04-27T17:01:22.648Z,7.28
2019-04-27T17:03:51.743Z,6.72
2019-04-27T17:06:21.361Z,6.62
2019-04-27T17:08:50.685Z,5.83
2019-04-27T17:11:20.721Z,7.37
2019-04-27T17:14:11.849Z,7.55
2019-04-27T17:17:03.735Z,6.37
2019-04-27T17:19:43.706Z,5.83
2019-04-27T17:22:14.775Z,4.03
2019-04-27T17:24:46.107Z,3.30
2019-04-27T17:27:16.366Z,5.90
2019-04-27T17:29:50.079Z,6.00
2019-04-27T17:32:33.664Z,4.85
2019-04-27T17:35:05.190Z,2.98
2019-04-27T17:37:36.123Z,5.20
2019-04-27T17:40:05.164Z,7.15
2019-04-27T17:42:34.147Z,4.92
2019-04-27T17:45:03.241Z,6.17
2019-04-27T17:47:32.211Z,5.75
2019-04-27T17:50:01.220Z,4.92
2019-04-27T17:52:32.376Z,5.15
2019-04-27T17:55:01.406Z,11.40
2019-04-27T17:57:30.536Z,5.95
2019-04-27T18:00:03.092Z,6.60
2019-04-27T18:02:33.964Z,6.30
2019-04-27T18:05:01.524Z,8.38
2019-04-27T18:07:34.740Z,5.05
2019-04-27T18:10:01.184Z,13.58
2019-04-27T18:12:30.294Z,8.95
2019-04-27T18:14:59.209Z,6.00
2019-04-27T18:17:29.302Z,9.68
2019-04-27T18:20:01.707Z,8.50
2019-04-27T18:22:36.474Z,6.90
2019-04-27T18:25:09.618Z,10.53
2019-04-27T18:27:58.293Z,7.45
2019-04-27T18:30:33.696Z,7.92
2019-04-27T18:33:02.379Z,7.92
2019-04-27T18:35:31.425Z,6.03
2019-04-27T18:38:01.670Z,7.78
2019-04-27T18:40:32.305Z,6.03
2019-04-27T18:43:01.864Z,6.35
2019-04-27T18:45:32.381Z,8.13
2019-04-27T18:48:06.598Z,9.83
2019-04-27T18:50:50.259Z,9.05
2019-04-27T18:53:23.229Z,5.40
2019-04-27T18:55:57.578Z,8.53
2019-04-27T18:58:21.501Z,5.47
2019-04-27T19:00:50.533Z,8.88
2019-04-27T19:03:19.396Z,7.85
2019-04-27T19:05:48.396Z,6.12
2019-04-27T19:08:17.784Z,7.80
2019-04-27T19:10:48.310Z,9.13
2019-04-27T19:13:19.064Z,5.83
2019-04-27T19:15:48.188Z,6.67
2019-04-27T19:18:18.869Z,7.80
2019-04-27T19:20:50.218Z,3.30
2019-04-27T19:23:19.232Z,6.83
2019-04-27T19:26:16.361Z,4.33
2019-04-27T19:29:08.665Z,8.55
2019-04-27T19:31:42.831Z,5.78
2019-04-27T19:34:11.891Z,4.20
2019-04-27T19:36:42.193Z,5.62
2019-04-27T19:39:13.998Z,10.35
2019-04-27T19:41:56.180Z,5.72
2019-04-27T19:44:14.062Z,7.47
2019-04-27T19:46:42.950Z,8.05
2019-04-27T19:49:12.220Z,6.75
2019-04-27T19:51:41.224Z,8.25
2019-04-27T19:54:10.137Z,6.05
2019-04-27T19:56:39.165Z,6.62
2019-04-27T19:59:14.378Z,5.70
2019-04-27T20:01:45.788Z,2.80
2019-04-27T20:04:23.878Z,3.33
2019-04-27T20:06:52.913Z,2.52
2019-04-27T20:09:26.834Z,1.95
2019-04-27T20:11:55.755Z,4.05
2019-04-27T20:14:24.655Z,5.70
2019-04-27T20:16:53.613Z,3.52
2019-04-27T20:19:22.486Z,3.87
2019-04-27T20:21:51.450Z,3.72
2019-04-27T20:24:20.602Z,8.98
2019-04-27T20:26:49.689Z,3.95
2019-04-27T20:29:18.591Z,4.67
2019-04-27T20:31:47.542Z,4.00
2019-04-27T20:34:16.487Z,2.87
2019-04-27T20:36:45.431Z,2.10
2019-04-27T20:39:14.373Z,2.98
2019-04-27T20:41:43.323Z,2.92
2019-04-27T20:44:12.744Z,3.87
2019-04-27T20:46:42.004Z,3.58
2019-04-27T20:49:19.705Z,3.80
2019-04-27T20:51:54.170Z,2.95
2019-04-27T20:54:23.577Z,3.30
2019-04-27T20:56:53.620Z,5.83
2019-04-27T20:59:23.827Z,5.87
2019-04-27T21:01:52.850Z,3.47
2019-04-27T21:04:25.218Z,6.15
2019-04-27T21:06:57.594Z,7.40
2019-04-27T21:09:26.562Z,6.62
2019-04-27T21:11:55.467Z,6.87
2019-04-27T21:14:24.326Z,7.15
2019-04-27T21:16:53.172Z,6.22
2019-04-27T21:19:22.151Z,8.50
2019-04-27T21:21:51.203Z,11.12
2019-04-27T21:24:21.021Z,4.20
2019-04-27T21:26:51.327Z,6.05
2019-04-27T21:29:20.991Z,8.73
2019-04-27T21:31:51.865Z,5.42
2019-04-27T21:34:20.907Z,4.62
2019-04-27T21:36:51.018Z,7.30
2019-04-27T21:39:21.727Z,9.63
2019-04-27T21:41:51.703Z,6.65
2019-04-27T21:44:21.799Z,6.90
2019-04-27T21:46:51.873Z,12.75
2019-04-27T21:49:22.871Z,10.15
2019-04-27T21:52:14.660Z,8.13
2019-04-27T21:54:44.366Z,5.42
2019-04-27T21:57:13.307Z,7.78
2019-04-27T21:59:42.219Z,6.85
2019-04-27T22:02:12.490Z,5.15
2019-04-27T22:04:41.745Z,8.15
2019-04-27T22:07:11.566Z,6.50
2019-04-27T22:09:43.018Z,6.53
2019-04-27T22:12:11.601Z,6.30
2019-04-27T22:14:40.720Z,6.80
2019-04-27T22:17:11.004Z,5.67
2019-04-27T22:19:41.322Z,10.78
2019-04-27T22:22:21.101Z,8.78
2019-04-27T22:24:51.325Z,5.95
2019-04-27T22:27:20.824Z,3.00
2019-04-27T22:29:50.839Z,6.95
2019-04-27T22:32:20.490Z,6.03
2019-04-27T22:34:49.416Z,3.58
2019-04-27T22:37:18.318Z,2.42
2019-04-27T22:40:06.346Z,5.60
2019-04-27T22:42:58.863Z,3.00
2019-04-27T22:45:31.821Z,1.80
2019-04-27T22:48:01.262Z,2.90
2019-04-27T22:50:31.271Z,2.20
2019-04-27T22:53:00.358Z,3.27
2019-04-27T22:55:31.052Z,3.95
2019-04-27T22:58:11.739Z,3.83
2019-04-27T23:01:01.347Z,2.40
2019-04-27T23:03:34.652Z,3.95
2019-04-27T23:06:03.660Z,4.35
2019-04-27T23:08:32.604Z,5.15
2019-04-27T23:11:02.616Z,1.95
2019-04-27T23:13:31.880Z,4.08
2019-04-27T23:16:03.102Z,2.83
2019-04-27T23:18:31.956Z,6.08
2019-04-27T23:21:01.580Z,2.65
2019-04-27T23:23:31.080Z,6.58
2019-04-27T23:26:01.803Z,2.10
2019-04-27T23:28:31.346Z,6.17
2019-04-27T23:31:10.847Z,4.37
2019-04-27T23:33:42.580Z,5.78
2019-04-27T23:36:11.568Z,3.90
2019-04-27T23:38:40.909Z,3.95
2019-04-27T23:41:11.623Z,4.30
2019-04-27T23:43:40.664Z,4.97
2019-04-27T23:46:11.509Z,4.85
2019-04-27T23:48:42.008Z,4.50
2019-04-27T23:51:24.739Z,4.22
2019-04-27T23:53:59.314Z,4.90
2019-04-27T23:56:28.279Z,5.22
2019-04-27T23:58:59.739Z,3.98
